Estación Meteorológica Peña el Pijo (Robertgarden) [ 06/25/17 17:33:26 CEST ]

Fecha Hora Presion(HPa) Temp (°C) Humedad % Rocio (°C) Viento ( m/s) Direccion Lluvia 1Hora(mm) Lluvia 24H(mm) LLuvia Total(mm)
2017-May-24 01:01:49 1013.800 14.6 48 3.7         1390.83
2017-May-24 02:01:38 1013.500 13.8 51 3.9         1390.83
2017-May-24 03:01:39 1013.400 11.8 58 3.8         1390.83
2017-May-24 04:01:43 1012.800 9.8 63 3.1         1390.83
2017-May-24 05:01:37 1012.800 8.9 68 3.3         1390.83
2017-May-24 06:01:42 1012.800 7.9 71 3.0         1390.83
2017-May-24 07:02:00 1012.900 7.3 74 3.0         1390.83
2017-May-24 08:09:03 1013.000 - - - - S     1390.83
2017-May-24 09:01:45 1012.800 15.6 60 7.9         1390.83
2017-May-24 10:01:48 1012.800 22.0 39 7.4         1390.83
2017-May-24 11:01:45 1012.300 25.8 33 8.2         1390.83
2017-May-24 12:01:41 1012.200 27.5 31 8.8         1390.83
2017-May-24 13:01:48 1012.300 28.9 25 6.7 1.4 S     1390.83
2017-May-24 14:01:46 1011.800 29.2 27 8.1         1390.83
2017-May-24 15:01:46 1011.500 30.1 25 7.7         1390.83
2017-May-24 16:01:47 1011.100 29.7 25 7.3 2.3 S     1390.83
2017-May-24 17:01:44 1010.900 28.8 27 7.8         1390.83
2017-May-24 18:02:02 1010.500 27.9 29 8.1 3.0 SW     1390.83
2017-May-24 19:01:33 1010.600 26.8 30 7.8         1390.83
2017-May-24 20:01:28 1010.700 24.1 33 6.8         1390.83
2017-May-24 21:01:41 1011.000 21.1 38 6.2         1390.83
2017-May-24 22:01:45 1011.100 19.0 43 6.1         1390.83
2017-May-24 23:01:38 1011.900 17.4 47 5.9         1390.83

Temperatura Máxima:30°    Temperatura Mínima:
Presión Máxima:1013.800 Hpa    Presión Mínima:1010.500 Hpa


Volver